Time;durP1;ratioP1;P1;durP2;ratioP2;P2;SDS_P1;SDS_P2;PMS_P1;PMS_P2;Temp;Humidity;BMP_temperature;BMP_pressure;BME280_temperature;BME280_humidity;BME280_pressure;Samples;Min_cycle;Max_cycle;Signal;HPM_P1;HPM_P2
2023/01/20 00:02:15;;;;;;;0.70;0.70;;;1.50;99.90;;;;;;5049876;28;20762;-83
2023/01/20 00:04:41;;;;;;;0.47;0.47;;;1.40;99.90;;;;;;5051241;28;20604;-84
2023/01/20 00:07:07;;;;;;;1.13;1.13;;;1.40;99.90;;;;;;5055330;28;20201;-81
2023/01/20 00:09:32;;;;;;;0.43;0.43;;;1.40;99.90;;;;;;5053069;28;20301;-82
2023/01/20 00:11:58;;;;;;;0.50;0.50;;;1.40;99.90;;;;;;5055945;28;20351;-81
2023/01/20 00:14:24;;;;;;;0.40;0.40;;;1.40;99.90;;;;;;5055450;28;20231;-81
2023/01/20 00:16:50;;;;;;;1.37;1.07;;;1.30;99.90;;;;;;5024295;28;20218;-87
2023/01/20 00:19:16;;;;;;;0.90;0.90;;;1.30;99.90;;;;;;5053972;28;20194;-86
2023/01/20 00:21:42;;;;;;;0.40;0.40;;;1.20;99.90;;;;;;5054898;28;20544;-81
2023/01/20 00:24:08;;;;;;;1.00;0.97;;;1.10;99.90;;;;;;5058207;28;20224;-81
2023/01/20 00:26:34;;;;;;;0.57;0.57;;;1.00;99.90;;;;;;5046769;28;20229;-83
2023/01/20 00:28:59;;;;;;;0.73;0.73;;;1.00;99.90;;;;;;5056086;28;20305;-82
2023/01/20 00:31:28;;;;;;;0.73;0.73;;;1.00;99.90;;;;;;5056308;28;20307;-81
2023/01/20 00:33:56;;;;;;;0.80;0.80;;;0.90;99.90;;;;;;5058190;28;20204;-80
2023/01/20 00:36:22;;;;;;;1.03;1.03;;;0.90;99.90;;;;;;5056056;28;20221;-80
2023/01/20 00:38:48;;;;;;;0.30;0.30;;;0.80;99.90;;;;;;5056870;28;20209;-83
2023/01/20 00:41:15;;;;;;;0.30;0.30;;;0.70;99.90;;;;;;5056225;28;20744;-83
2023/01/20 00:43:40;;;;;;;1.50;1.03;;;0.70;99.90;;;;;;5055619;28;20593;-81
2023/01/20 00:46:07;;;;;;;0.30;0.30;;;0.60;99.90;;;;;;5022653;28;20209;-82
2023/01/20 00:48:33;;;;;;;2.13;1.93;;;0.60;99.90;;;;;;5024342;28;20679;-82
2023/01/20 00:50:59;;;;;;;1.20;0.87;;;0.50;99.90;;;;;;5055968;28;20277;-81
2023/01/20 00:53:25;;;;;;;0.70;0.70;;;0.50;99.90;;;;;;5052886;28;20648;-81
2023/01/20 00:55:51;;;;;;;1.77;0.70;;;0.40;99.90;;;;;;5055826;28;20305;-84
2023/01/20 00:58:17;;;;;;;1.03;1.03;;;0.40;99.90;;;;;;5055421;28;20186;-81
2023/01/20 01:00:46;;;;;;;0.60;0.60;;;0.30;99.90;;;;;;5058141;28;20217;-83
2023/01/20 01:03:12;;;;;;;1.37;1.37;;;0.30;99.90;;;;;;5056156;28;20242;-81
2023/01/20 01:05:38;;;;;;;1.80;1.33;;;0.30;99.90;;;;;;5054229;28;20230;-82
2023/01/20 01:08:04;;;;;;;0.37;0.37;;;0.20;99.90;;;;;;5055082;28;20229;-86
2023/01/20 01:10:30;;;;;;;0.67;0.67;;;0.20;99.90;;;;;;5037132;28;20186;-85
2023/01/20 01:12:59;;;;;;;1.23;1.13;;;0.20;99.90;;;;;;5055583;28;20197;-83
2023/01/20 01:15:25;;;;;;;4.03;1.07;;;0.10;99.90;;;;;;5046819;28;20556;-84
2023/01/20 01:17:51;;;;;;;1.07;0.97;;;0.10;99.90;;;;;;5024473;28;20220;-82
2023/01/20 01:20:17;;;;;;;0.90;0.90;;;0.00;99.90;;;;;;5057609;28;20220;-81
2023/01/20 01:22:42;;;;;;;0.40;0.40;;;0.00;99.90;;;;;;5058083;28;20221;-81
2023/01/20 01:25:08;;;;;;;0.40;0.40;;;0.00;99.90;;;;;;5040755;28;20197;-84
2023/01/20 01:27:35;;;;;;;0.47;0.47;;;0.00;99.90;;;;;;5055353;28;20210;-82
2023/01/20 01:30:00;;;;;;;1.10;1.10;;;0.00;99.90;;;;;;5053723;28;20226;-87
2023/01/20 01:32:26;;;;;;;0.77;0.77;;;-0.10;99.90;;;;;;5036237;28;20280;-85
2023/01/20 01:34:52;;;;;;;1.67;0.90;;;-0.10;99.90;;;;;;5054074;28;20566;-80
2023/01/20 01:37:18;;;;;;;1.27;0.80;;;0.00;99.90;;;;;;5054464;28;20186;-82
2023/01/20 01:39:43;;;;;;;1.77;0.83;;;-0.10;99.90;;;;;;5039342;28;20193;-81
2023/01/20 01:42:15;;;;;;;1.97;1.27;;;-0.10;99.90;;;;;;5055036;28;20236;-81
2023/01/20 01:45:10;;;;;;;3.10;0.73;;;-0.10;99.90;;;;;;5054058;28;20226;-81
2023/01/20 01:47:46;;;;;;;1.07;1.07;;;-0.10;99.90;;;;;;5048758;28;20286;-81
2023/01/20 01:50:18;;;;;;;1.20;1.20;;;-0.10;99.90;;;;;;5056164;28;20324;-80
2023/01/20 01:52:49;;;;;;;2.57;1.07;;;-0.10;99.90;;;;;;5053588;28;21069;-84
2023/01/20 01:55:17;;;;;;;1.70;0.67;;;-0.20;99.90;;;;;;5054895;28;20193;-87
2023/01/20 01:57:44;;;;;;;0.60;0.60;;;-0.20;99.90;;;;;;5056359;28;20301;-88
2023/01/20 02:00:11;;;;;;;0.67;0.67;;;-0.20;99.90;;;;;;5052265;28;20253;-82
2023/01/20 02:02:37;;;;;;;0.30;0.30;;;-0.20;99.90;;;;;;5055923;28;20213;-82
2023/01/20 02:05:03;;;;;;;0.57;0.57;;;-0.20;99.90;;;;;;5052876;28;20287;-80
2023/01/20 02:07:32;;;;;;;0.50;0.50;;;-0.10;99.90;;;;;;5055038;28;20206;-84
2023/01/20 02:09:59;;;;;;;0.60;0.53;;;-0.10;99.90;;;;;;5056153;28;20526;-82
2023/01/20 02:12:24;;;;;;;0.80;0.80;;;-0.10;99.90;;;;;;5054493;28;20213;-86
2023/01/20 02:14:56;;;;;;;0.90;0.90;;;-0.10;99.90;;;;;;5036677;28;20634;-80
2023/01/20 02:17:56;;;;;;;0.50;0.50;;;0.00;99.90;;;;;;5060628;28;20549;-82
2023/01/20 02:20:49;;;;;;;0.90;0.90;;;0.00;99.90;;;;;;5053824;28;20425;-84
2023/01/20 02:23:40;;;;;;;0.70;0.70;;;0.20;99.90;;;;;;5053861;28;20224;-82
2023/01/20 02:26:18;;;;;;;2.40;0.90;;;0.20;99.90;;;;;;5018197;28;20237;-84
2023/01/20 02:29:12;;;;;;;0.57;0.57;;;0.30;99.90;;;;;;5055407;28;20351;-81
2023/01/20 02:31:57;;;;;;;0.53;0.53;;;0.30;99.90;;;;;;5029823;28;20225;-85
2023/01/20 02:35:04;;;;;;;0.30;0.30;;;0.30;99.90;;;;;;5056422;28;20555;-82
2023/01/20 02:38:04;;;;;;;0.60;0.60;;;0.40;99.90;;;;;;5002060;28;20797;-87
2023/01/20 02:40:39;;;;;;;0.40;0.40;;;0.40;99.90;;;;;;4956154;28;20255;-86
2023/01/20 02:43:13;;;;;;;0.30;0.30;;;0.40;99.90;;;;;;5042926;28;20212;-82
2023/01/20 02:45:47;;;;;;;0.50;0.50;;;0.40;99.90;;;;;;5053431;28;20217;-82
2023/01/20 02:48:25;;;;;;;0.30;0.30;;;0.40;99.90;;;;;;5053224;28;20254;-83
2023/01/20 02:50:59;;;;;;;0.60;0.60;;;0.40;99.90;;;;;;5055550;28;20256;-80
2023/01/20 02:53:33;;;;;;;2.97;2.57;;;0.40;99.90;;;;;;5055168;28;20732;-82
2023/01/20 02:55:59;;;;;;;0.60;0.60;;;0.40;99.90;;;;;;5052628;28;20255;-80
2023/01/20 02:58:38;;;;;;;0.30;0.30;;;0.40;99.90;;;;;;5056206;28;20217;-80
2023/01/20 03:01:12;;;;;;;0.97;0.97;;;0.40;99.90;;;;;;5054158;28;20235;-82
2023/01/20 03:03:42;;;;;;;1.07;0.63;;;0.40;99.90;;;;;;5053345;28;20214;-85
2023/01/20 03:06:15;;;;;;;0.87;0.87;;;0.40;99.90;;;;;;5053913;28;20241;-80
2023/01/20 03:08:41;;;;;;;0.57;0.57;;;0.40;99.90;;;;;;5053798;28;20235;-85
2023/01/20 03:11:08;;;;;;;0.40;0.40;;;0.40;99.90;;;;;;5052861;28;20217;-84
2023/01/20 03:13:39;;;;;;;0.20;0.20;;;0.40;99.90;;;;;;5055549;28;20301;-84
2023/01/20 03:16:10;;;;;;;1.17;1.07;;;0.50;99.90;;;;;;5053311;28;20193;-81
2023/01/20 03:18:37;;;;;;;1.13;1.13;;;0.50;99.90;;;;;;5052811;28;20733;-82
2023/01/20 03:21:05;;;;;;;0.53;0.53;;;0.50;99.90;;;;;;5053486;28;20217;-82
2023/01/20 03:23:34;;;;;;;0.63;0.63;;;0.50;99.90;;;;;;5054382;28;20221;-82
2023/01/20 03:26:05;;;;;;;0.63;0.63;;;0.50;99.90;;;;;;5053464;28;20224;-84
2023/01/20 03:28:31;;;;;;;0.40;0.40;;;0.60;99.90;;;;;;5052044;28;20544;-82
2023/01/20 03:30:58;;;;;;;0.83;0.83;;;0.60;99.90;;;;;;5037123;28;20449;-83
2023/01/20 03:33:25;;;;;;;1.27;1.17;;;0.70;99.90;;;;;;5052145;28;20217;-82
2023/01/20 03:35:51;;;;;;;0.30;0.30;;;0.70;99.90;;;;;;5050633;28;20237;-83
2023/01/20 03:38:17;;;;;;;1.37;1.37;;;0.70;99.90;;;;;;5050410;28;20726;-85
2023/01/20 03:41:00;;;;;;;0.77;0.77;;;0.80;99.90;;;;;;5053518;28;20213;-80
2023/01/20 03:43:37;;;;;;;1.10;1.10;;;0.80;99.90;;;;;;5053048;28;20182;-81
2023/01/20 03:46:14;;;;;;;1.07;1.07;;;0.70;99.90;;;;;;5057227;28;20201;-81
2023/01/20 03:49:16;;;;;;;0.73;0.73;;;0.70;99.90;;;;;;5056846;28;20614;-80
2023/01/20 03:51:49;;;;;;;0.70;0.70;;;0.70;99.90;;;;;;5052318;28;20658;-79
2023/01/20 03:54:19;;;;;;;0.77;0.77;;;0.60;99.90;;;;;;5055416;28;20260;-80
2023/01/20 03:56:55;;;;;;;0.43;0.43;;;0.60;99.90;;;;;;5057323;28;20237;-80
2023/01/20 03:59:22;;;;;;;0.70;0.70;;;0.60;99.90;;;;;;5056528;28;20661;-84
2023/01/20 04:01:48;;;;;;;0.70;0.70;;;0.60;99.90;;;;;;5057389;28;20222;-87
2023/01/20 04:04:17;;;;;;;1.20;1.20;;;0.60;99.90;;;;;;5056311;28;20194;-83
2023/01/20 04:06:44;;;;;;;1.43;1.33;;;0.50;99.90;;;;;;5055594;28;20217;-80
2023/01/20 04:09:19;;;;;;;1.33;1.23;;;0.50;99.90;;;;;;5055334;28;20336;-80
2023/01/20 04:11:44;;;;;;;0.87;0.87;;;0.50;99.90;;;;;;5059586;28;20788;-82
2023/01/20 04:14:10;;;;;;;0.87;0.87;;;0.50;99.90;;;;;;5036327;28;20224;-81
2023/01/20 04:16:36;;;;;;;0.93;0.93;;;0.50;99.90;;;;;;5036920;28;20731;-83
2023/01/20 04:19:02;;;;;;;1.00;1.00;;;0.50;99.90;;;;;;5057426;28;20659;-81
2023/01/20 04:21:42;;;;;;;2.97;2.23;;;0.40;99.90;;;;;;5037415;28;20214;-84
2023/01/20 04:24:10;;;;;;;3.63;3.43;;;0.40;99.90;;;;;;5058500;28;20252;-81
2023/01/20 04:26:36;;;;;;;2.63;1.77;;;0.40;99.90;;;;;;5056726;28;20237;-82
2023/01/20 04:29:07;;;;;;;2.13;2.03;;;0.50;99.90;;;;;;5054993;28;20270;-82
2023/01/20 04:31:34;;;;;;;2.47;2.17;;;0.50;99.90;;;;;;5056235;28;20185;-84
2023/01/20 04:34:01;;;;;;;3.07;1.33;;;0.60;99.90;;;;;;5023392;28;20221;-81
2023/01/20 04:36:26;;;;;;;1.07;1.07;;;0.60;99.90;;;;;;5056681;28;20228;-84
2023/01/20 04:38:52;;;;;;;0.70;0.70;;;0.60;99.90;;;;;;5058576;28;20217;-82
2023/01/20 04:41:18;;;;;;;1.47;1.00;;;0.60;99.90;;;;;;5057422;28;20217;-82
2023/01/20 04:43:45;;;;;;;2.20;0.83;;;0.60;99.90;;;;;;5057455;28;20217;-82
2023/01/20 04:46:14;;;;;;;1.57;0.97;;;0.60;99.90;;;;;;5056231;28;20213;-83
2023/01/20 04:48:40;;;;;;;1.53;1.27;;;0.60;99.90;;;;;;5055540;28;20213;-86
2023/01/20 04:51:07;;;;;;;0.93;0.70;;;0.60;99.90;;;;;;5056265;28;20241;-82
2023/01/20 04:53:33;;;;;;;4.17;1.47;;;0.60;99.90;;;;;;5057780;28;20225;-81
2023/01/20 04:55:59;;;;;;;5.83;1.87;;;0.60;99.90;;;;;;5056367;28;20221;-82
2023/01/20 04:58:25;;;;;;;1.37;1.20;;;0.60;99.90;;;;;;5057337;28;20189;-81
2023/01/20 05:00:50;;;;;;;0.80;0.80;;;0.60;99.90;;;;;;5055225;28;20223;-85
2023/01/20 05:03:18;;;;;;;2.33;2.00;;;0.60;99.90;;;;;;5055387;28;20538;-82
2023/01/20 05:05:52;;;;;;;1.70;1.50;;;0.60;99.90;;;;;;5055743;28;20229;-81
2023/01/20 05:08:18;;;;;;;3.47;2.93;;;0.60;99.90;;;;;;5056604;28;20227;-82
2023/01/20 05:10:43;;;;;;;0.70;0.70;;;0.60;99.90;;;;;;5054705;28;20213;-86
2023/01/20 05:13:09;;;;;;;1.03;1.03;;;0.60;99.90;;;;;;5040221;28;20643;-82
2023/01/20 05:15:35;;;;;;;0.73;0.73;;;0.60;99.90;;;;;;5022019;28;20579;-81
2023/01/20 05:18:00;;;;;;;0.70;0.70;;;0.50;99.90;;;;;;5054198;28;20220;-82
2023/01/20 05:20:26;;;;;;;1.10;1.10;;;0.50;99.90;;;;;;5056712;28;20232;-81
2023/01/20 05:22:52;;;;;;;0.50;0.50;;;0.40;99.90;;;;;;5052739;28;20738;-82
2023/01/20 05:25:18;;;;;;;6.80;1.30;;;0.40;99.90;;;;;;5055184;28;20300;-81
2023/01/20 05:27:43;;;;;;;2.00;0.73;;;0.40;99.90;;;;;;5061954;28;20216;-80
2023/01/20 05:30:10;;;;;;;6.50;2.83;;;0.50;99.90;;;;;;5054397;28;20225;-84
2023/01/20 05:32:36;;;;;;;1.27;1.27;;;0.50;99.90;;;;;;5036950;28;20224;-82
2023/01/20 05:35:02;;;;;;;1.13;1.13;;;0.50;99.90;;;;;;5056707;28;20214;-82
2023/01/20 05:37:27;;;;;;;1.77;1.67;;;0.60;99.90;;;;;;5054867;28;20193;-86
2023/01/20 05:39:53;;;;;;;2.63;1.90;;;0.60;99.90;;;;;;5055877;28;20587;-81
2023/01/20 05:42:19;;;;;;;1.80;1.70;;;0.60;99.90;;;;;;5055553;28;20682;-84
2023/01/20 05:44:45;;;;;;;1.23;1.23;;;0.60;99.90;;;;;;5055065;28;20216;-82
2023/01/20 05:47:10;;;;;;;1.60;0.70;;;0.60;99.90;;;;;;5036986;28;20229;-82
2023/01/20 05:49:36;;;;;;;2.17;2.07;;;0.50;99.90;;;;;;5054506;28;20181;-83
2023/01/20 05:52:02;;;;;;;4.43;2.90;;;0.60;99.90;;;;;;5047245;28;20196;-84
2023/01/20 05:54:28;;;;;;;2.27;2.17;;;0.50;99.90;;;;;;5055967;28;20359;-88
2023/01/20 05:56:53;;;;;;;0.80;0.80;;;0.60;99.90;;;;;;5054685;28;20233;-82
2023/01/20 05:59:19;;;;;;;1.60;1.50;;;0.60;99.90;;;;;;5053824;28;20236;-85
2023/01/20 06:01:45;;;;;;;1.07;1.07;;;0.70;99.90;;;;;;5036801;28;20225;-82
2023/01/20 06:04:10;;;;;;;3.57;2.80;;;0.80;99.90;;;;;;5054385;28;20194;-86
2023/01/20 06:06:36;;;;;;;3.37;3.10;;;0.90;99.90;;;;;;5069398;28;20291;-82
2023/01/20 06:09:02;;;;;;;2.73;2.13;;;1.00;99.90;;;;;;5057583;28;20705;-81
2023/01/20 06:11:28;;;;;;;1.57;1.53;;;1.10;99.90;;;;;;5052707;28;20217;-88
2023/01/20 06:13:54;;;;;;;5.80;2.23;;;1.10;99.90;;;;;;5035296;28;20213;-81
2023/01/20 06:16:19;;;;;;;4.57;2.80;;;1.20;99.90;;;;;;5035970;28;20707;-81
2023/01/20 06:18:45;;;;;;;2.03;1.87;;;1.20;99.90;;;;;;5061738;28;20178;-84
2023/01/20 06:21:11;;;;;;;2.00;1.90;;;1.20;99.90;;;;;;5039733;28;20225;-83
2023/01/20 06:23:37;;;;;;;4.77;3.63;;;1.20;99.90;;;;;;5053620;28;20695;-83
2023/01/20 06:26:09;;;;;;;1.33;1.33;;;1.20;99.90;;;;;;5037513;28;20722;-82
2023/01/20 06:28:35;;;;;;;3.67;3.37;;;1.20;99.90;;;;;;5052621;28;20186;-85
2023/01/20 06:31:02;;;;;;;1.50;1.43;;;1.20;99.90;;;;;;5053640;28;20251;-83
2023/01/20 06:33:28;;;;;;;3.57;3.20;;;1.10;99.90;;;;;;5029362;28;20277;-90
2023/01/20 06:35:55;;;;;;;5.13;3.27;;;1.10;99.90;;;;;;5073033;28;20217;-85
2023/01/20 06:38:26;;;;;;;1.47;1.47;;;1.10;99.90;;;;;;5038411;28;20213;-86
2023/01/20 06:40:57;;;;;;;2.37;1.97;;;1.20;99.90;;;;;;5055167;28;20727;-85
2023/01/20 06:43:23;;;;;;;8.00;5.23;;;1.10;99.90;;;;;;5053531;28;20235;-83
2023/01/20 06:45:49;;;;;;;2.60;1.57;;;1.20;99.90;;;;;;5055587;28;20221;-83
2023/01/20 06:48:15;;;;;;;0.57;0.57;;;1.10;99.90;;;;;;5052374;28;20678;-83
2023/01/20 06:50:41;;;;;;;6.13;2.23;;;1.10;99.90;;;;;;5035754;28;20229;-87
2023/01/20 06:53:07;;;;;;;7.03;5.53;;;1.10;99.90;;;;;;5036100;28;20586;-83
2023/01/20 06:55:33;;;;;;;1.53;1.43;;;1.10;99.90;;;;;;5020325;28;20192;-84
2023/01/20 06:57:58;;;;;;;3.83;3.53;;;1.10;99.90;;;;;;5053277;28;20182;-87
2023/01/20 07:00:24;;;;;;;3.10;2.87;;;1.10;99.90;;;;;;5035881;28;20716;-86
2023/01/20 07:02:50;;;;;;;6.10;2.77;;;1.10;99.90;;;;;;5052280;28;20206;-86
2023/01/20 07:05:16;;;;;;;1.83;1.73;;;1.20;99.90;;;;;;5050256;28;20222;-84
2023/01/20 07:07:45;;;;;;;3.43;3.17;;;1.20;99.90;;;;;;5034378;28;20217;-85
2023/01/20 07:10:11;;;;;;;2.30;2.23;;;1.20;99.90;;;;;;5055746;28;20642;-83
2023/01/20 07:12:37;;;;;;;2.63;2.53;;;1.20;99.90;;;;;;5055004;28;20220;-88
2023/01/20 07:15:03;;;;;;;3.73;1.60;;;1.20;99.90;;;;;;5043230;28;20214;-83
2023/01/20 07:17:29;;;;;;;3.13;2.93;;;1.20;99.90;;;;;;5052981;28;20304;-82
2023/01/20 07:19:55;;;;;;;9.17;3.07;;;1.30;99.90;;;;;;5046023;28;20347;-86
2023/01/20 07:22:21;;;;;;;4.37;4.03;;;1.30;99.90;;;;;;5057162;28;20190;-82
2023/01/20 07:24:47;;;;;;;4.30;3.07;;;1.30;99.90;;;;;;5064843;28;20255;-82
2023/01/20 07:27:13;;;;;;;3.17;2.47;;;1.30;99.90;;;;;;5039636;28;20217;-86
2023/01/20 07:29:40;;;;;;;5.27;4.43;;;1.30;99.90;;;;;;5056471;28;20300;-83
2023/01/20 07:32:06;;;;;;;2.57;2.40;;;1.30;99.90;;;;;;5056501;28;20291;-87
2023/01/20 07:34:32;;;;;;;7.60;2.90;;;1.30;99.90;;;;;;5038903;28;20711;-84
2023/01/20 07:37:00;;;;;;;4.73;3.27;;;1.30;99.90;;;;;;5040801;28;20265;-87
2023/01/20 07:39:26;;;;;;;3.83;3.63;;;1.20;99.90;;;;;;5057373;28;20695;-82
2023/01/20 07:41:51;;;;;;;5.23;1.80;;;1.30;99.90;;;;;;5056446;28;20249;-84
2023/01/20 07:44:17;;;;;;;1.50;0.80;;;1.30;99.90;;;;;;5056542;28;20230;-82
2023/01/20 07:46:43;;;;;;;2.97;2.77;;;1.30;99.90;;;;;;5047575;28;20271;-84
2023/01/20 07:49:10;;;;;;;3.33;3.13;;;1.30;99.90;;;;;;5051966;28;20737;-83
2023/01/20 07:51:35;;;;;;;12.97;6.03;;;1.30;99.90;;;;;;5054431;28;20244;-85
2023/01/20 07:54:03;;;;;;;10.03;5.03;;;1.30;99.90;;;;;;5057240;28;20224;-86
2023/01/20 07:56:29;;;;;;;2.20;2.10;;;1.30;99.90;;;;;;5059992;28;20320;-83
2023/01/20 07:58:55;;;;;;;7.00;5.30;;;1.30;99.90;;;;;;5055781;28;20213;-84
2023/01/20 08:01:29;;;;;;;4.73;3.37;;;1.30;99.90;;;;;;5023464;28;20200;-85
2023/01/20 08:03:55;;;;;;;3.37;3.00;;;1.30;99.90;;;;;;5058060;28;20174;-84
2023/01/20 08:06:24;;;;;;;3.63;3.37;;;1.30;99.90;;;;;;5057039;28;20248;-83
2023/01/20 08:08:50;;;;;;;5.10;4.37;;;1.30;99.90;;;;;;5062769;28;20248;-82
2023/01/20 08:11:18;;;;;;;3.60;3.27;;;1.40;99.90;;;;;;5057366;28;20213;-88
2023/01/20 08:13:44;;;;;;;5.77;3.63;;;1.30;99.90;;;;;;5055565;28;20264;-84
2023/01/20 08:16:12;;;;;;;1.73;1.70;;;1.40;99.90;;;;;;5060696;28;20272;-85
2023/01/20 08:18:38;;;;;;;3.37;3.10;;;1.40;99.90;;;;;;5066284;28;20247;-87
2023/01/20 08:21:07;;;;;;;1.87;1.87;;;1.40;99.90;;;;;;5066773;28;20221;-88
2023/01/20 08:23:34;;;;;;;2.23;2.03;;;1.40;99.90;;;;;;5058908;28;20268;-86
2023/01/20 08:26:01;;;;;;;6.00;5.30;;;1.40;99.90;;;;;;5058094;28;20225;-89
2023/01/20 08:28:31;;;;;;;2.47;1.43;;;1.40;99.90;;;;;;5057218;28;20193;-87
2023/01/20 08:31:12;;;;;;;1.60;1.57;;;1.40;99.90;;;;;;5048253;28;20173;-84
2023/01/20 08:33:41;;;;;;;3.57;3.30;;;1.50;99.90;;;;;;5057994;28;20217;-88
2023/01/20 08:36:13;;;;;;;2.80;2.60;;;1.40;99.90;;;;;;5058391;28;20347;-89
2023/01/20 08:38:40;;;;;;;2.70;2.50;;;1.50;99.90;;;;;;5057699;28;20588;-85
2023/01/20 08:41:11;;;;;;;4.10;3.63;;;1.50;99.90;;;;;;5057392;28;20275;-86
2023/01/20 08:43:37;;;;;;;1.57;1.47;;;1.50;99.90;;;;;;5053554;28;20628;-84
2023/01/20 08:46:07;;;;;;;2.57;2.37;;;1.50;99.90;;;;;;5041117;28;20721;-85
2023/01/20 08:48:35;;;;;;;3.23;3.10;;;1.50;99.90;;;;;;5055661;28;20720;-87
2023/01/20 08:51:10;;;;;;;3.10;2.90;;;1.50;99.90;;;;;;5055972;28;20272;-89
2023/01/20 08:53:36;;;;;;;1.93;1.83;;;1.60;99.90;;;;;;5062467;28;20217;-87
2023/01/20 08:56:02;;;;;;;3.93;1.47;;;1.60;99.90;;;;;;5063222;28;20228;-87
2023/01/20 08:58:29;;;;;;;1.10;1.00;;;1.60;99.90;;;;;;5040849;28;20193;-90
2023/01/20 09:00:54;;;;;;;4.13;3.87;;;1.60;99.90;;;;;;5056412;28;20190;-89
2023/01/20 09:03:21;;;;;;;6.43;2.53;;;1.60;99.90;;;;;;5037809;28;20590;-88
2023/01/20 09:05:47;;;;;;;7.07;3.40;;;1.60;99.90;;;;;;5057349;28;20233;-87
2023/01/20 09:08:14;;;;;;;2.77;2.27;;;1.50;99.90;;;;;;5056759;28;20228;-90
2023/01/20 09:10:39;;;;;;;2.43;2.23;;;1.50;99.90;;;;;;5057041;28;20380;-88
2023/01/20 09:13:05;;;;;;;5.20;1.80;;;1.50;99.90;;;;;;5056716;28;20193;-89
2023/01/20 09:15:31;;;;;;;4.17;3.90;;;1.60;99.90;;;;;;5054837;28;20216;-88
2023/01/20 09:18:00;;;;;;;6.63;6.23;;;1.50;99.90;;;;;;5040776;28;20217;-87
2023/01/20 09:20:27;;;;;;;4.57;3.00;;;1.50;99.90;;;;;;5054885;28;20229;-88
2023/01/20 09:22:53;;;;;;;6.83;2.97;;;1.60;99.90;;;;;;5057464;28;20248;-88
2023/01/20 09:25:19;;;;;;;4.20;3.90;;;1.60;99.90;;;;;;5056383;28;20217;-86
2023/01/20 09:27:45;;;;;;;2.13;1.93;;;1.60;99.90;;;;;;5046855;28;20662;-88
2023/01/20 09:30:11;;;;;;;4.27;3.53;;;1.60;99.90;;;;;;5056214;28;20218;-89
2023/01/20 09:32:37;;;;;;;3.87;2.30;;;1.60;99.90;;;;;;5059308;28;20801;-88
2023/01/20 09:35:04;;;;;;;4.97;3.87;;;1.60;99.90;;;;;;5056489;28;20222;-87
2023/01/20 09:46:07;;;;;;;5.97;3.53;;;1.60;99.90;;;;;;5056509;28;20249;-87
2023/01/20 09:55:12;;;;;;;8.40;4.60;;;1.70;99.90;;;;;;5026167;28;20248;-89
2023/01/20 09:57:41;;;;;;;2.63;2.17;;;1.70;99.90;;;;;;5054977;28;20296;-86
2023/01/20 10:00:21;;;;;;;4.27;3.73;;;1.70;99.90;;;;;;5054121;28;20220;-85
2023/01/20 10:02:53;;;;;;;2.10;2.00;;;1.80;99.90;;;;;;5056430;28;20210;-87
2023/01/20 10:05:22;;;;;;;5.97;5.37;;;1.70;99.90;;;;;;5055792;28;20233;-90
2023/01/20 10:08:07;;;;;;;6.60;5.47;;;1.80;99.90;;;;;;5056908;28;20252;-88
2023/01/20 10:10:44;;;;;;;13.03;8.77;;;1.80;99.90;;;;;;5055301;28;20188;-89
2023/01/20 10:13:18;;;;;;;4.53;4.13;;;1.80;99.90;;;;;;5057436;28;20246;-88
2023/01/20 10:15:51;;;;;;;6.43;5.27;;;1.90;99.90;;;;;;5055174;28;20584;-90
2023/01/20 10:19:00;;;;;;;4.53;3.07;;;1.90;99.90;;;;;;5068518;28;20216;-91
2023/01/20 10:21:50;;;;;;;3.13;2.90;;;2.00;99.90;;;;;;5009929;28;20221;-90
2023/01/20 10:24:23;;;;;;;2.47;2.23;;;2.00;99.90;;;;;;5055174;28;20324;-87
2023/01/20 10:26:58;;;;;;;1.37;1.37;;;2.10;99.90;;;;;;5058613;28;20591;-87
2023/01/20 10:29:35;;;;;;;1.83;1.03;;;2.10;99.90;;;;;;5053765;28;20498;-88
2023/01/20 10:32:14;;;;;;;6.63;2.80;;;2.10;99.90;;;;;;5056905;28;20544;-88
2023/01/20 10:34:45;;;;;;;4.23;2.70;;;2.10;99.90;;;;;;5050400;28;20679;-89
2023/01/20 10:37:11;;;;;;;2.13;2.03;;;2.10;99.90;;;;;;5053813;28;20268;-88
2023/01/20 10:40:00;;;;;;;8.37;3.00;;;2.20;99.90;;;;;;5053535;28;20213;-86
2023/01/20 10:42:27;;;;;;;4.60;3.17;;;2.20;99.90;;;;;;5054787;28;20231;-87
2023/01/20 10:44:53;;;;;;;5.33;4.87;;;2.30;99.90;;;;;;5057732;28;20244;-88
2023/01/20 10:47:28;;;;;;;6.03;5.73;;;2.30;99.90;;;;;;5054941;28;20218;-89
2023/01/20 10:50:18;;;;;;;7.13;3.70;;;2.30;99.90;;;;;;5054842;28;20740;-88
2023/01/20 10:52:59;;;;;;;2.73;2.57;;;2.30;99.90;;;;;;5054425;28;20235;-88
2023/01/20 10:55:39;;;;;;;13.63;3.40;;;2.30;99.90;;;;;;5056807;28;20190;-86
2023/01/20 10:58:24;;;;;;;5.30;3.27;;;2.30;99.90;;;;;;5054242;28;20196;-87
2023/01/20 11:00:50;;;;;;;4.53;4.13;;;2.30;99.90;;;;;;5053469;28;20218;-88
2023/01/20 11:03:20;;;;;;;1.63;1.53;;;2.40;99.90;;;;;;5056076;28;20669;-89
2023/01/20 11:05:48;;;;;;;0.57;0.57;;;2.30;99.90;;;;;;5054969;28;20246;-87
2023/01/20 11:08:22;;;;;;;4.50;3.50;;;2.30;99.90;;;;;;5056328;28;20220;-87
2023/01/20 11:11:16;;;;;;;1.33;1.33;;;2.30;99.90;;;;;;5054678;28;20232;-87
2023/01/20 11:13:42;;;;;;;4.13;3.80;;;2.40;99.90;;;;;;5052418;28;20266;-86
2023/01/20 11:16:24;;;;;;;4.27;3.73;;;2.40;99.90;;;;;;5054780;28;20196;-86
2023/01/20 11:19:02;;;;;;;5.67;1.77;;;2.40;99.90;;;;;;5055580;28;20224;-86
2023/01/20 11:21:35;;;;;;;9.57;3.53;;;2.40;99.90;;;;;;5052172;28;20579;-87
2023/01/20 11:24:20;;;;;;;6.23;5.43;;;2.40;99.90;;;;;;5056985;28;20209;-87
2023/01/20 11:26:46;;;;;;;4.70;1.30;;;2.50;99.90;;;;;;5054815;28;20724;-87
2023/01/20 11:29:12;;;;;;;3.10;2.87;;;2.40;99.90;;;;;;5037234;28;20217;-87
2023/01/20 11:31:44;;;;;;;1.77;1.67;;;2.40;99.90;;;;;;5054261;28;20189;-87
2023/01/20 11:34:31;;;;;;;4.83;4.53;;;2.50;99.90;;;;;;5056577;28;20654;-86
2023/01/20 11:37:03;;;;;;;1.27;1.17;;;2.50;99.90;;;;;;5054901;28;20722;-87
2023/01/20 11:39:54;;;;;;;4.83;4.57;;;2.50;99.90;;;;;;5055433;28;20214;-87
2023/01/20 11:42:26;;;;;;;1.63;1.03;;;2.50;99.90;;;;;;5056884;28;20218;-86
2023/01/20 11:44:56;;;;;;;2.90;2.70;;;2.50;99.90;;;;;;5055993;28;20309;-87
2023/01/20 11:47:26;;;;;;;4.43;4.13;;;2.60;99.90;;;;;;5050973;28;20221;-87
2023/01/20 11:50:04;;;;;;;12.77;2.00;;;2.50;99.90;;;;;;5054252;28;20569;-87
2023/01/20 11:52:34;;;;;;;6.27;3.80;;;2.50;99.90;;;;;;5057511;28;20202;-88
2023/01/20 11:55:16;;;;;;;4.53;3.30;;;2.60;99.90;;;;;;5055388;28;20222;-88
2023/01/20 11:57:47;;;;;;;5.17;3.67;;;2.50;99.90;;;;;;5056472;28;20779;-88
2023/01/20 12:00:25;;;;;;;3.53;3.33;;;2.50;99.90;;;;;;5054646;28;20226;-87
2023/01/20 12:03:36;;;;;;;5.63;3.87;;;2.50;99.90;;;;;;5055365;28;20253;-87
2023/01/20 12:06:08;;;;;;;6.57;5.03;;;2.60;99.90;;;;;;5056960;28;20512;-88
2023/01/20 12:08:45;;;;;;;3.00;2.83;;;2.50;99.90;;;;;;5058007;28;20229;-88
2023/01/20 12:11:22;;;;;;;6.37;5.77;;;2.60;99.90;;;;;;5055901;28;20225;-88
2023/01/20 12:14:19;;;;;;;10.17;3.77;;;2.50;99.90;;;;;;5055391;28;20209;-88
2023/01/20 12:17:06;;;;;;;4.77;1.90;;;2.50;99.90;;;;;;5055026;28;20324;-86
2023/01/20 12:19:55;;;;;;;4.73;2.97;;;2.50;99.90;;;;;;5059037;28;20212;-89
2023/01/20 12:22:26;;;;;;;2.00;1.90;;;2.60;99.90;;;;;;5056901;28;20643;-89
2023/01/20 12:25:09;;;;;;;4.20;3.90;;;2.60;99.90;;;;;;5056884;28;20630;-87
2023/01/20 12:27:42;;;;;;;2.93;2.73;;;2.50;99.90;;;;;;5057915;28;20217;-86
2023/01/20 12:30:19;;;;;;;3.93;3.53;;;2.60;99.90;;;;;;5070342;28;20202;-85
2023/01/20 12:32:45;;;;;;;2.70;2.47;;;2.50;99.90;;;;;;5065901;28;20216;-89
2023/01/20 12:35:14;;;;;;;7.50;2.43;;;2.50;99.90;;;;;;5037559;28;20209;-90
2023/01/20 12:37:54;;;;;;;5.73;4.73;;;2.50;99.90;;;;;;5047158;28;20210;-88
2023/01/20 12:40:28;;;;;;;3.07;2.23;;;2.60;99.90;;;;;;5057910;28;20205;-88
2023/01/20 12:43:15;;;;;;;4.00;3.77;;;2.60;99.90;;;;;;5060516;28;20184;-86
2023/01/20 12:46:08;;;;;;;2.83;2.63;;;2.60;99.90;;;;;;5059071;28;20231;-88
2023/01/20 12:48:58;;;;;;;7.07;2.73;;;2.60;99.90;;;;;;5058358;28;20237;-90
2023/01/20 12:52:09;;;;;;;3.47;3.17;;;2.60;99.90;;;;;;5055345;28;20367;-88
2023/01/20 12:54:55;;;;;;;4.77;4.37;;;2.50;99.90;;;;;;5042701;28;20257;-89
2023/01/20 12:57:39;;;;;;;2.83;2.70;;;2.50;99.90;;;;;;5059141;28;20344;-90
2023/01/20 13:00:34;;;;;;;5.33;3.03;;;2.60;99.90;;;;;;5055962;28;20582;-89
2023/01/20 13:03:25;;;;;;;5.53;3.47;;;2.60;99.90;;;;;;4968869;28;20740;-89
2023/01/20 13:06:05;;;;;;;3.80;3.07;;;2.60;99.90;;;;;;5044634;28;20840;-89
2023/01/20 13:08:35;;;;;;;3.33;0.83;;;2.50;99.90;;;;;;5056975;28;20228;-89
2023/01/20 13:11:28;;;;;;;3.33;2.60;;;2.50;99.90;;;;;;5057604;28;20213;-88
2023/01/20 13:14:05;;;;;;;3.23;3.07;;;2.60;99.90;;;;;;5054795;28;20258;-89
2023/01/20 13:16:46;;;;;;;4.63;3.60;;;2.50;99.90;;;;;;5054387;28;20251;-90
2023/01/20 13:19:26;;;;;;;4.63;4.23;;;2.60;99.90;;;;;;5057278;28;20204;-89
2023/01/20 13:21:53;;;;;;;1.93;1.30;;;2.60;99.90;;;;;;5055115;28;20220;-89
2023/01/20 13:24:28;;;;;;;2.07;1.97;;;2.60;99.90;;;;;;5058322;28;20209;-86
2023/01/20 13:26:56;;;;;;;2.10;2.00;;;2.60;99.90;;;;;;5052476;28;20228;-87
2023/01/20 13:29:51;;;;;;;2.37;2.27;;;2.70;99.90;;;;;;5055179;28;20335;-89
2023/01/20 13:32:29;;;;;;;2.80;2.70;;;2.70;99.90;;;;;;5055087;28;20256;-89